sensor_id;sensor_type;location;lat;lon;timestamp;pressure;altitude;pressure_sealevel;temperature;humidity
74913;BME280;63878;55.624;37.304;2023-08-01T00:04:14;98427.63;;;15.97;58.61
74913;BME280;63878;55.624;37.304;2023-08-01T00:14:14;98413.88;;;15.79;59.24
74913;BME280;63878;55.624;37.304;2023-08-01T00:24:15;98428.34;;;15.55;60.08
74913;BME280;63878;55.624;37.304;2023-08-01T00:34:15;98431.81;;;15.55;59.80
74913;BME280;63878;55.624;37.304;2023-08-01T00:44:15;98420.06;;;15.35;60.08
74913;BME280;63878;55.624;37.304;2023-08-01T00:54:16;98427.66;;;15.38;60.38
74913;BME280;63878;55.624;37.304;2023-08-01T01:04:17;98414.00;;;15.11;60.88
74913;BME280;63878;55.624;37.304;2023-08-01T01:14:17;98433.69;;;15.02;61.79
74913;BME280;63878;55.624;37.304;2023-08-01T01:24:19;98439.56;;;15.12;61.60
74913;BME280;63878;55.624;37.304;2023-08-01T01:34:21;98436.34;;;14.88;61.99
74913;BME280;63878;55.624;37.304;2023-08-01T01:44:22;98447.66;;;14.67;62.71
74913;BME280;63878;55.624;37.304;2023-08-01T01:54:23;98446.63;;;14.68;62.44
74913;BME280;63878;55.624;37.304;2023-08-01T02:04:23;98439.88;;;14.57;63.29
74913;BME280;63878;55.624;37.304;2023-08-01T02:14:24;98436.19;;;14.66;62.61
74913;BME280;63878;55.624;37.304;2023-08-01T02:24:24;98437.88;;;14.59;62.92
74913;BME280;63878;55.624;37.304;2023-08-01T02:34:25;98436.56;;;14.78;61.94
74913;BME280;63878;55.624;37.304;2023-08-01T02:44:26;98440.13;;;14.93;61.96
74913;BME280;63878;55.624;37.304;2023-08-01T02:54:26;98446.19;;;15.31;60.67
74913;BME280;63878;55.624;37.304;2023-08-01T03:04:27;98453.38;;;15.75;59.27
74913;BME280;63878;55.624;37.304;2023-08-01T03:14:27;98455.38;;;15.88;58.80
74913;BME280;63878;55.624;37.304;2023-08-01T03:24:28;98448.56;;;16.00;58.48
74913;BME280;63878;55.624;37.304;2023-08-01T03:34:28;98462.50;;;16.38;57.81
74913;BME280;63878;55.624;37.304;2023-08-01T03:44:29;98464.34;;;16.59;57.63
74913;BME280;63878;55.624;37.304;2023-08-01T03:54:29;98484.84;;;17.29;55.61
74913;BME280;63878;55.624;37.304;2023-08-01T04:04:30;98490.59;;;17.61;54.88
74913;BME280;63878;55.624;37.304;2023-08-01T04:14:30;98493.44;;;17.88;54.83
74913;BME280;63878;55.624;37.304;2023-08-01T04:24:31;98497.47;;;18.31;53.68
74913;BME280;63878;55.624;37.304;2023-08-01T04:34:31;98490.84;;;18.95;52.30
74913;BME280;63878;55.624;37.304;2023-08-01T04:44:32;98486.09;;;19.30;52.36
74913;BME280;63878;55.624;37.304;2023-08-01T04:54:33;98496.03;;;20.01;51.01
74913;BME280;63878;55.624;37.304;2023-08-01T05:04:33;98497.00;;;20.58;49.13
74913;BME280;63878;55.624;37.304;2023-08-01T05:14:34;98504.16;;;21.02;47.57
74913;BME280;63878;55.624;37.304;2023-08-01T05:24:35;98505.50;;;21.12;42.32
74913;BME280;63878;55.624;37.304;2023-08-01T05:34:35;98518.00;;;21.49;43.46
74913;BME280;63878;55.624;37.304;2023-08-01T05:44:36;98503.63;;;21.37;43.82
74913;BME280;63878;55.624;37.304;2023-08-01T05:54:37;98525.09;;;21.44;43.40
74913;BME280;63878;55.624;37.304;2023-08-01T06:04:37;98519.97;;;21.79;44.99
74913;BME280;63878;55.624;37.304;2023-08-01T06:14:37;98523.31;;;22.59;42.66
74913;BME280;63878;55.624;37.304;2023-08-01T06:24:39;98524.56;;;23.87;40.44
74913;BME280;63878;55.624;37.304;2023-08-01T06:34:40;98533.75;;;22.86;41.20
74913;BME280;63878;55.624;37.304;2023-08-01T06:44:40;98529.00;;;24.45;41.02
74913;BME280;63878;55.624;37.304;2023-08-01T06:54:41;98519.53;;;23.67;36.29
74913;BME280;63878;55.624;37.304;2023-08-01T07:04:42;98534.56;;;24.27;39.86
74913;BME280;63878;55.624;37.304;2023-08-01T07:14:43;98537.88;;;23.00;36.81
74913;BME280;63878;55.624;37.304;2023-08-01T07:24:43;98540.31;;;23.43;40.82
74913;BME280;63878;55.624;37.304;2023-08-01T07:34:44;98537.69;;;23.95;39.91
74913;BME280;63878;55.624;37.304;2023-08-01T07:44:44;98524.59;;;23.40;39.63
74913;BME280;63878;55.624;37.304;2023-08-01T07:54:45;98525.38;;;23.99;39.23
74913;BME280;63878;55.624;37.304;2023-08-01T08:04:46;98525.06;;;23.61;39.45
74913;BME280;63878;55.624;37.304;2023-08-01T08:14:47;98527.38;;;23.10;39.80
74913;BME280;63878;55.624;37.304;2023-08-01T08:24:48;98529.34;;;22.43;39.88
74913;BME280;63878;55.624;37.304;2023-08-01T08:34:48;98518.03;;;21.86;40.86
74913;BME280;63878;55.624;37.304;2023-08-01T08:44:54;98521.22;;;22.91;41.03
74913;BME280;63878;55.624;37.304;2023-08-01T08:54:55;98522.41;;;23.07;41.01
74913;BME280;63878;55.624;37.304;2023-08-01T09:04:57;98516.81;;;22.97;41.22
74913;BME280;63878;55.624;37.304;2023-08-01T09:14:58;98517.13;;;22.59;41.95
74913;BME280;63878;55.624;37.304;2023-08-01T09:24:58;98512.50;;;22.36;42.51
74913;BME280;63878;55.624;37.304;2023-08-01T09:34:59;98491.16;;;21.86;42.37
74913;BME280;63878;55.624;37.304;2023-08-01T09:45:00;98497.97;;;22.67;42.27
74913;BME280;63878;55.624;37.304;2023-08-01T09:55:00;98499.78;;;22.73;41.83
74913;BME280;63878;55.624;37.304;2023-08-01T10:05:01;98491.16;;;22.94;41.39
74913;BME280;63878;55.624;37.304;2023-08-01T10:15:03;98490.88;;;22.73;41.94
74913;BME280;63878;55.624;37.304;2023-08-01T10:25:05;98481.31;;;22.77;41.51
74913;BME280;63878;55.624;37.304;2023-08-01T10:35:07;98483.81;;;22.30;40.14
74913;BME280;63878;55.624;37.304;2023-08-01T10:45:20;98479.06;;;22.13;41.07
74913;BME280;63878;55.624;37.304;2023-08-01T10:55:21;98471.53;;;21.85;40.55
74913;BME280;63878;55.624;37.304;2023-08-01T11:05:22;98463.53;;;21.97;41.98
74913;BME280;63878;55.624;37.304;2023-08-01T11:15:22;98463.25;;;21.50;40.32
74913;BME280;63878;55.624;37.304;2023-08-01T11:25:37;98458.91;;;21.86;41.51
74913;BME280;63878;55.624;37.304;2023-08-01T11:35:39;98449.38;;;22.08;41.16
74913;BME280;63878;55.624;37.304;2023-08-01T11:45:51;98462.94;;;22.13;41.15
74913;BME280;63878;55.624;37.304;2023-08-01T11:55:52;98447.75;;;22.49;37.75
74913;BME280;63878;55.624;37.304;2023-08-01T12:06:02;98449.13;;;22.70;38.66
74913;BME280;63878;55.624;37.304;2023-08-01T12:16:03;98418.78;;;22.63;38.92
74913;BME280;63878;55.624;37.304;2023-08-01T12:26:04;98421.75;;;22.31;38.40
74913;BME280;63878;55.624;37.304;2023-08-01T12:36:04;98424.84;;;22.17;38.54
74913;BME280;63878;55.624;37.304;2023-08-01T12:46:05;98413.72;;;21.65;36.78
74913;BME280;63878;55.624;37.304;2023-08-01T12:56:06;98414.88;;;21.32;35.35
74913;BME280;63878;55.624;37.304;2023-08-01T13:06:10;98404.59;;;21.47;34.25
74913;BME280;63878;55.624;37.304;2023-08-01T13:16:11;98404.94;;;21.32;33.94
74913;BME280;63878;55.624;37.304;2023-08-01T13:26:11;98401.88;;;21.11;40.26
74913;BME280;63878;55.624;37.304;2023-08-01T13:36:12;98385.69;;;20.99;36.66
74913;BME280;63878;55.624;37.304;2023-08-01T13:46:18;98398.59;;;21.08;40.77
74913;BME280;63878;55.624;37.304;2023-08-01T13:56:18;98396.81;;;21.02;37.65
74913;BME280;63878;55.624;37.304;2023-08-01T14:06:19;98379.94;;;20.95;36.89
74913;BME280;63878;55.624;37.304;2023-08-01T14:16:19;98390.81;;;21.00;40.49
74913;BME280;63878;55.624;37.304;2023-08-01T14:26:20;98383.81;;;20.99;35.79
74913;BME280;63878;55.624;37.304;2023-08-01T14:36:20;98391.63;;;20.83;40.72
74913;BME280;63878;55.624;37.304;2023-08-01T14:46:21;98385.69;;;20.74;40.38
74913;BME280;63878;55.624;37.304;2023-08-01T14:56:21;98386.69;;;20.79;35.98
74913;BME280;63878;55.624;37.304;2023-08-01T15:06:22;98390.53;;;20.90;40.39
74913;BME280;63878;55.624;37.304;2023-08-01T15:16:23;98391.00;;;20.80;36.48
74913;BME280;63878;55.624;37.304;2023-08-01T15:26:23;98393.63;;;20.62;34.48
74913;BME280;63878;55.624;37.304;2023-08-01T15:36:28;98398.72;;;20.70;37.69
74913;BME280;63878;55.624;37.304;2023-08-01T15:46:29;98414.94;;;20.82;37.93
74913;BME280;63878;55.624;37.304;2023-08-01T15:56:29;98403.72;;;20.92;39.25
74913;BME280;63878;55.624;37.304;2023-08-01T16:06:30;98417.34;;;20.90;43.67
74913;BME280;63878;55.624;37.304;2023-08-01T16:16:30;98415.00;;;20.75;45.55
74913;BME280;63878;55.624;37.304;2023-08-01T16:26:32;98425.75;;;20.69;45.88
74913;BME280;63878;55.624;37.304;2023-08-01T16:36:32;98426.75;;;20.74;46.77
74913;BME280;63878;55.624;37.304;2023-08-01T16:46:33;98404.09;;;20.39;48.05
74913;BME280;63878;55.624;37.304;2023-08-01T16:56:34;98417.34;;;20.90;46.18
74913;BME280;63878;55.624;37.304;2023-08-01T17:06:34;98430.16;;;20.88;46.33
74913;BME280;63878;55.624;37.304;2023-08-01T17:16:35;98439.34;;;20.99;45.21
74913;BME280;63878;55.624;37.304;2023-08-01T17:26:37;98469.41;;;21.07;45.05
74913;BME280;63878;55.624;37.304;2023-08-01T17:36:38;98467.44;;;20.96;45.65
74913;BME280;63878;55.624;37.304;2023-08-01T17:46:38;98477.88;;;20.79;46.79
74913;BME280;63878;55.624;37.304;2023-08-01T17:56:39;98483.81;;;20.57;47.27
74913;BME280;63878;55.624;37.304;2023-08-01T18:06:40;98489.47;;;20.42;47.66
74913;BME280;63878;55.624;37.304;2023-08-01T18:16:40;98483.22;;;20.54;47.56
74913;BME280;63878;55.624;37.304;2023-08-01T18:26:41;98480.38;;;20.43;48.94
74913;BME280;63878;55.624;37.304;2023-08-01T18:36:42;98480.09;;;20.19;49.90
74913;BME280;63878;55.624;37.304;2023-08-01T18:46:42;98478.28;;;20.00;50.32
74913;BME280;63878;55.624;37.304;2023-08-01T18:56:43;98481.06;;;19.73;51.51
74913;BME280;63878;55.624;37.304;2023-08-01T19:06:43;98488.09;;;19.75;51.93
74913;BME280;63878;55.624;37.304;2023-08-01T19:16:43;98491.72;;;19.87;50.43
74913;BME280;63878;55.624;37.304;2023-08-01T19:26:44;98481.34;;;19.45;53.45
74913;BME280;63878;55.624;37.304;2023-08-01T19:36:44;98471.94;;;19.94;50.94
74913;BME280;63878;55.624;37.304;2023-08-01T19:46:45;98477.88;;;19.38;53.07
74913;BME280;63878;55.624;37.304;2023-08-01T19:56:46;98491.84;;;19.01;55.08
74913;BME280;63878;55.624;37.304;2023-08-01T20:06:47;98493.22;;;18.57;56.74
74913;BME280;63878;55.624;37.304;2023-08-01T20:16:47;98490.81;;;18.62;56.63
74913;BME280;63878;55.624;37.304;2023-08-01T20:26:49;98504.00;;;18.77;55.69
74913;BME280;63878;55.624;37.304;2023-08-01T20:36:49;98515.06;;;18.67;56.08
74913;BME280;63878;55.624;37.304;2023-08-01T20:46:50;98503.97;;;18.70;54.81
74913;BME280;63878;55.624;37.304;2023-08-01T20:56:51;98508.97;;;18.25;57.51
74913;BME280;63878;55.624;37.304;2023-08-01T21:06:51;98506.69;;;18.16;57.94
74913;BME280;63878;55.624;37.304;2023-08-01T21:16:53;98503.94;;;17.96;59.42
74913;BME280;63878;55.624;37.304;2023-08-01T21:26:55;98512.59;;;18.04;59.17
74913;BME280;63878;55.624;37.304;2023-08-01T21:36:55;98501.72;;;17.71;60.97
74913;BME280;63878;55.624;37.304;2023-08-01T21:46:56;98504.94;;;17.60;61.31
74913;BME280;63878;55.624;37.304;2023-08-01T21:56:56;98500.59;;;17.24;62.50
74913;BME280;63878;55.624;37.304;2023-08-01T22:06:56;98504.44;;;17.15;63.00
74913;BME280;63878;55.624;37.304;2023-08-01T22:16:57;98513.56;;;17.06;63.06
74913;BME280;63878;55.624;37.304;2023-08-01T22:26:58;98513.06;;;16.96;63.45
74913;BME280;63878;55.624;37.304;2023-08-01T22:36:58;98517.59;;;16.95;63.59
74913;BME280;63878;55.624;37.304;2023-08-01T22:46:59;98506.09;;;16.95;63.22
74913;BME280;63878;55.624;37.304;2023-08-01T22:56:59;98505.56;;;16.85;63.69
74913;BME280;63878;55.624;37.304;2023-08-01T23:07:00;98507.44;;;16.63;64.55
74913;BME280;63878;55.624;37.304;2023-08-01T23:17:01;98513.31;;;16.58;64.71
74913;BME280;63878;55.624;37.304;2023-08-01T23:27:02;98508.38;;;16.55;65.03
74913;BME280;63878;55.624;37.304;2023-08-01T23:37:03;98512.28;;;16.23;66.64
74913;BME280;63878;55.624;37.304;2023-08-01T23:47:03;98493.50;;;16.10;67.09
74913;BME280;63878;55.624;37.304;2023-08-01T23:57:04;98505.44;;;16.29;65.81
